createdAt,value
2022-08-17T00:01:27.354Z,20.00
2022-08-17T00:05:32.779Z,19.90
2022-08-17T00:09:35.165Z,19.90
2022-08-17T00:13:45.030Z,19.90
2022-08-17T00:17:51.020Z,19.80
2022-08-17T00:22:32.032Z,19.80
2022-08-17T00:26:43.607Z,19.70
2022-08-17T00:30:51.284Z,19.60
2022-08-17T00:34:55.840Z,19.60
2022-08-17T00:38:58.071Z,19.60
2022-08-17T00:43:18.840Z,19.60
2022-08-17T00:47:21.527Z,19.60
2022-08-17T00:51:47.540Z,19.60
2022-08-17T00:55:49.876Z,19.60
2022-08-17T01:00:02.123Z,19.60
2022-08-17T01:04:06.703Z,19.60
2022-08-17T01:08:13.720Z,19.60
2022-08-17T01:12:16.570Z,19.60
2022-08-17T01:16:31.013Z,19.50
2022-08-17T01:20:47.835Z,19.50
2022-08-17T01:24:56.286Z,19.40
2022-08-17T01:28:59.090Z,19.40
2022-08-17T01:33:01.778Z,19.30
2022-08-17T01:37:04.491Z,19.30
2022-08-17T01:41:14.066Z,19.20
2022-08-17T01:45:23.634Z,19.30
2022-08-17T01:49:26.020Z,19.30
2022-08-17T01:53:33.090Z,19.20
2022-08-17T01:57:35.271Z,19.20
2022-08-17T02:01:38.232Z,19.20
2022-08-17T02:05:41.174Z,19.10
2022-08-17T02:09:44.210Z,19.10
2022-08-17T02:14:02.355Z,19.00
2022-08-17T02:18:07.022Z,19.00
2022-08-17T02:22:10.297Z,19.00
2022-08-17T02:26:23.889Z,18.90
2022-08-17T02:31:00.938Z,18.90
2022-08-17T02:34:51.151Z,18.90
2022-08-17T02:38:53.185Z,18.90
2022-08-17T02:42:55.656Z,18.90
2022-08-17T02:46:57.722Z,18.90
2022-08-17T02:51:01.023Z,18.90
2022-08-17T02:55:04.351Z,18.80
2022-08-17T02:59:06.385Z,18.80
2022-08-17T03:03:11.041Z,18.80
2022-08-17T03:07:13.296Z,18.80
2022-08-17T03:11:16.247Z,18.70
2022-08-17T03:15:25.173Z,18.70
2022-08-17T03:19:28.431Z,18.60
2022-08-17T03:23:32.376Z,18.60
2022-08-17T03:27:34.380Z,18.50
2022-08-17T03:31:36.957Z,18.50
2022-08-17T03:35:40.802Z,18.50
2022-08-17T03:39:43.483Z,18.40
2022-08-17T03:43:45.817Z,18.40
2022-08-17T03:48:06.530Z,18.40
2022-08-17T03:52:51.716Z,18.40
2022-08-17T03:57:11.741Z,18.40
2022-08-17T04:01:15.007Z,18.40
2022-08-17T04:05:17.956Z,18.50
2022-08-17T04:09:20.262Z,18.90
2022-08-17T04:13:24.186Z,19.70
2022-08-17T04:17:29.531Z,21.00
2022-08-17T04:21:32.291Z,22.40
2022-08-17T04:25:43.474Z,23.90
2022-08-17T04:29:55.144Z,25.40
2022-08-17T04:33:58.307Z,26.90
2022-08-17T04:38:00.856Z,28.30
2022-08-17T04:42:09.775Z,29.60
2022-08-17T04:46:17.852Z,31.00
2022-08-17T04:50:20.125Z,32.20
2022-08-17T04:54:24.080Z,33.30
2022-08-17T04:58:26.878Z,34.30
2022-08-17T05:02:28.864Z,34.60
2022-08-17T05:06:32.388Z,34.40
2022-08-17T05:10:37.212Z,35.80
2022-08-17T05:14:47.746Z,37.30
2022-08-17T05:18:50.258Z,38.60
2022-08-17T05:22:56.092Z,39.80
2022-08-17T05:27:02.617Z,40.90
2022-08-17T05:31:09.346Z,41.80
2022-08-17T05:35:11.789Z,42.60
2022-08-17T05:39:16.178Z,43.40
2022-08-17T05:43:25.442Z,44.30
2022-08-17T05:47:28.992Z,44.80
2022-08-17T05:51:34.193Z,43.20
2022-08-17T05:55:42.851Z,39.90
2022-08-17T05:59:56.121Z,36.90
2022-08-17T06:04:22.510Z,34.40
2022-08-17T06:08:48.709Z,32.40
2022-08-17T06:13:00.223Z,30.80
2022-08-17T06:17:08.466Z,30.00
2022-08-17T06:21:13.674Z,29.50
2022-08-17T06:25:23.691Z,29.00
2022-08-17T06:29:55.971Z,28.60
2022-08-17T06:34:00.374Z,28.20
2022-08-17T06:38:37.374Z,27.80
2022-08-17T06:43:15.645Z,27.20
2022-08-17T06:47:30.322Z,26.90
2022-08-17T06:51:40.969Z,26.80
2022-08-17T06:56:22.302Z,26.70
2022-08-17T07:00:33.796Z,26.50
2022-08-17T07:04:36.145Z,26.30
2022-08-17T07:08:50.178Z,26.20
2022-08-17T07:12:56.838Z,26.10
2022-08-17T07:17:04.230Z,26.10
2022-08-17T07:21:31.461Z,26.00
2022-08-17T07:25:33.755Z,26.00
2022-08-17T07:29:47.053Z,26.00
2022-08-17T07:34:14.669Z,25.90
2022-08-17T07:38:26.819Z,25.70
2022-08-17T07:42:29.998Z,25.70
2022-08-17T07:46:53.887Z,25.70
2022-08-17T07:51:00.318Z,25.70
2022-08-17T07:55:27.181Z,25.80
2022-08-17T08:00:17.014Z,26.00
2022-08-17T08:04:59.091Z,26.10
2022-08-17T08:08:55.805Z,26.10
2022-08-17T08:13:06.525Z,26.20
2022-08-17T08:17:09.410Z,26.20
2022-08-17T08:21:42.098Z,26.30
2022-08-17T08:25:50.801Z,26.40
2022-08-17T08:30:15.381Z,26.50
2022-08-17T08:35:02.732Z,26.70
2022-08-17T08:40:07.536Z,26.90
2022-08-17T08:45:03.918Z,27.00
2022-08-17T08:49:12.436Z,27.20
2022-08-17T08:53:36.514Z,27.30
2022-08-17T08:57:44.251Z,27.50
2022-08-17T09:02:04.706Z,27.50
2022-08-17T09:06:38.799Z,27.50
2022-08-17T09:10:58.776Z,27.60
2022-08-17T09:15:27.807Z,27.80
2022-08-17T09:19:46.119Z,27.90
2022-08-17T09:23:52.600Z,28.00
2022-08-17T09:28:07.165Z,28.10
2022-08-17T09:32:52.180Z,28.10
2022-08-17T09:37:21.899Z,28.10
2022-08-17T09:41:49.202Z,28.00
2022-08-17T09:45:57.358Z,28.10
2022-08-17T09:50:11.790Z,28.30
2022-08-17T09:54:40.417Z,28.40
2022-08-17T09:58:52.670Z,28.60
2022-08-17T10:03:04.813Z,28.50
2022-08-17T10:07:17.721Z,28.60
2022-08-17T10:12:03.281Z,28.60
2022-08-17T10:16:11.377Z,28.70
2022-08-17T10:20:30.927Z,28.70
2022-08-17T10:25:22.149Z,28.80
2022-08-17T10:29:48.845Z,28.80
2022-08-17T10:34:27.353Z,28.90
2022-08-17T10:38:46.494Z,29.00
2022-08-17T10:43:10.776Z,29.00
2022-08-17T10:47:16.269Z,29.00
2022-08-17T10:51:38.340Z,29.10
2022-08-17T10:55:44.573Z,28.80
2022-08-17T10:59:51.039Z,28.60
2022-08-17T11:03:56.956Z,28.70
2022-08-17T11:08:18.518Z,29.10
2022-08-17T11:13:01.395Z,29.00
2022-08-17T11:17:20.004Z,29.10
2022-08-17T11:21:55.299Z,29.20
2022-08-17T11:26:04.171Z,29.20
2022-08-17T11:30:34.928Z,29.00
2022-08-17T11:34:38.980Z,28.90
2022-08-17T11:39:17.799Z,28.90
2022-08-17T11:43:47.764Z,28.90
2022-08-17T11:48:28.687Z,28.80
2022-08-17T11:52:46.725Z,28.80
2022-08-17T11:56:52.216Z,29.00
2022-08-17T12:00:56.911Z,29.40
2022-08-17T12:05:14.430Z,29.70
2022-08-17T12:09:22.140Z,29.90
2022-08-17T12:13:27.444Z,30.00
2022-08-17T12:17:52.537Z,30.20
2022-08-17T12:22:01.414Z,30.20
2022-08-17T12:26:19.990Z,30.30
2022-08-17T12:30:22.765Z,30.20
2022-08-17T12:34:29.279Z,30.00
2022-08-17T12:38:34.899Z,30.00
2022-08-17T12:42:39.551Z,30.30
2022-08-17T12:46:50.430Z,30.60
2022-08-17T12:51:00.691Z,30.80
2022-08-17T12:55:07.740Z,31.00
2022-08-17T12:59:11.091Z,31.10
2022-08-17T13:03:17.091Z,30.80
2022-08-17T13:07:43.817Z,31.00
2022-08-17T13:12:04.970Z,31.30
2022-08-17T13:16:14.491Z,31.50
2022-08-17T13:20:17.815Z,31.60
2022-08-17T13:24:24.202Z,31.40
2022-08-17T13:28:29.890Z,31.30
2022-08-17T13:32:46.342Z,31.40
2022-08-17T13:36:50.665Z,31.70
2022-08-17T13:40:53.827Z,31.90
2022-08-17T13:44:56.453Z,32.00
2022-08-17T13:49:07.022Z,31.80
2022-08-17T13:53:40.212Z,31.80
2022-08-17T13:57:47.457Z,31.40
2022-08-17T14:01:53.905Z,31.20
2022-08-17T14:05:56.956Z,31.30
2022-08-17T14:10:06.859Z,31.20
2022-08-17T14:14:09.381Z,31.30
2022-08-17T14:18:12.151Z,31.20
2022-08-17T14:22:26.129Z,31.10
2022-08-17T14:26:29.361Z,31.30
2022-08-17T14:30:32.288Z,31.60
2022-08-17T14:34:34.640Z,31.50
2022-08-17T14:38:37.537Z,31.20
2022-08-17T14:42:42.779Z,31.10
2022-08-17T14:46:45.625Z,31.20
2022-08-17T14:50:47.931Z,31.20
2022-08-17T14:54:52.646Z,31.30
2022-08-17T14:58:55.751Z,31.10
2022-08-17T15:03:00.233Z,31.00
2022-08-17T15:07:03.831Z,30.90
2022-08-17T15:11:06.088Z,31.00
2022-08-17T15:15:18.543Z,31.20
2022-08-17T15:19:20.991Z,31.30
2022-08-17T15:23:26.250Z,31.10
2022-08-17T15:27:32.822Z,31.00
2022-08-17T15:31:35.157Z,31.00
2022-08-17T15:35:37.956Z,31.00
2022-08-17T15:39:39.919Z,31.00
2022-08-17T15:43:43.076Z,30.80
2022-08-17T15:47:46.626Z,30.70
2022-08-17T15:51:49.265Z,30.50
2022-08-17T15:55:52.249Z,30.40
2022-08-17T15:59:58.664Z,30.30
2022-08-17T16:04:07.265Z,30.30
2022-08-17T16:08:25.442Z,30.30
2022-08-17T16:12:28.146Z,30.30
2022-08-17T16:16:31.404Z,30.10
2022-08-17T16:20:33.602Z,30.00
2022-08-17T16:24:39.304Z,29.80
2022-08-17T16:28:41.968Z,29.70
2022-08-17T16:32:44.157Z,29.80
2022-08-17T16:36:54.835Z,29.70
2022-08-17T16:40:58.745Z,29.60
2022-08-17T16:45:20.077Z,29.40
2022-08-17T16:49:31.559Z,29.30
2022-08-17T16:53:38.739Z,29.20
2022-08-17T16:57:48.541Z,29.20
2022-08-17T17:01:52.784Z,29.20
2022-08-17T17:05:58.152Z,29.10
2022-08-17T17:10:05.896Z,29.00
2022-08-17T17:14:20.711Z,28.90
2022-08-17T17:18:47.749Z,28.90
2022-08-17T17:23:04.935Z,28.70
2022-08-17T17:27:53.486Z,28.50
2022-08-17T17:32:14.275Z,28.30
2022-08-17T17:36:40.172Z,28.10
2022-08-17T17:40:48.457Z,27.90
2022-08-17T17:45:07.817Z,27.90
2022-08-17T17:49:14.525Z,27.80
2022-08-17T17:53:35.388Z,27.60
2022-08-17T17:58:07.483Z,27.40
2022-08-17T18:02:53.421Z,27.30
2022-08-17T18:07:28.472Z,27.10
2022-08-17T18:12:07.605Z,26.90
2022-08-17T18:16:19.052Z,26.70
2022-08-17T18:20:46.742Z,26.50
2022-08-17T18:25:00.893Z,26.40
2022-08-17T18:29:37.704Z,26.20
2022-08-17T18:33:57.126Z,26.00
2022-08-17T18:38:41.539Z,25.80
2022-08-17T18:42:58.196Z,25.60
2022-08-17T18:47:27.617Z,25.40
2022-08-17T18:51:41.835Z,25.30
2022-08-17T18:55:45.145Z,25.20
2022-08-17T18:59:48.405Z,25.10
2022-08-17T19:03:50.629Z,25.00
2022-08-17T19:07:52.841Z,24.90
2022-08-17T19:11:56.488Z,24.80
2022-08-17T19:16:14.571Z,24.80
2022-08-17T19:20:27.555Z,24.70
2022-08-17T19:24:35.376Z,24.60
2022-08-17T19:28:58.522Z,24.50
2022-08-17T19:33:02.347Z,24.40
2022-08-17T19:37:32.130Z,24.30
2022-08-17T19:41:43.117Z,24.30
2022-08-17T19:46:43.049Z,24.20
2022-08-17T19:51:11.501Z,24.10
2022-08-17T19:55:22.837Z,24.00
2022-08-17T19:59:49.616Z,23.90
2022-08-17T20:04:06.924Z,23.90
2022-08-17T20:08:15.115Z,23.90
2022-08-17T20:12:20.219Z,23.90
2022-08-17T20:21:37.264Z,23.90
2022-08-17T20:25:47.444Z,23.80
2022-08-17T20:30:35.711Z,23.80
2022-08-17T20:34:40.110Z,23.70
2022-08-17T20:38:48.408Z,23.70
2022-08-17T20:42:52.106Z,23.60
2022-08-17T20:47:04.121Z,23.60
2022-08-17T20:52:00.480Z,23.60
2022-08-17T20:56:04.000Z,23.60
2022-08-17T21:00:16.780Z,23.50
2022-08-17T21:04:53.036Z,23.40
2022-08-17T21:09:15.072Z,23.30
2022-08-17T21:13:17.130Z,23.20
2022-08-17T21:17:30.156Z,23.20
2022-08-17T21:21:52.151Z,23.10
2022-08-17T21:25:59.233Z,23.10
2022-08-17T21:30:10.281Z,23.10
2022-08-17T21:34:16.935Z,23.10
2022-08-17T21:38:33.178Z,23.10
2022-08-17T21:42:38.554Z,23.10
2022-08-17T21:46:45.837Z,23.00
2022-08-17T21:51:12.981Z,23.00
2022-08-17T21:55:31.121Z,22.90
2022-08-17T21:59:38.438Z,22.90
2022-08-17T22:03:41.406Z,22.80
2022-08-17T22:07:45.960Z,22.80
2022-08-17T22:11:54.130Z,22.70
2022-08-17T22:16:29.345Z,22.70
2022-08-17T22:20:32.097Z,22.70
2022-08-17T22:24:36.942Z,22.60
2022-08-17T22:28:46.972Z,22.60
2022-08-17T22:32:49.977Z,22.60
2022-08-17T22:37:27.456Z,22.50
2022-08-17T22:41:35.818Z,22.50
2022-08-17T22:45:45.165Z,22.40
2022-08-17T22:49:53.376Z,22.40
2022-08-17T22:54:31.611Z,22.30
2022-08-17T22:58:58.842Z,22.30
2022-08-17T23:03:06.951Z,22.30
2022-08-17T23:07:09.243Z,22.20
2022-08-17T23:11:11.524Z,22.20
2022-08-17T23:15:17.872Z,22.10
2022-08-17T23:19:21.524Z,22.00
2022-08-17T23:23:23.991Z,21.90
2022-08-17T23:27:29.544Z,21.90
2022-08-17T23:31:37.773Z,21.90
2022-08-17T23:35:41.113Z,21.90
2022-08-17T23:39:47.248Z,21.80
2022-08-17T23:43:52.920Z,21.70
2022-08-17T23:47:55.635Z,21.70
2022-08-17T23:51:59.693Z,21.70
2022-08-17T23:56:09.436Z,21.70
